createdAt,value
2022-11-24T00:34:56.321Z,98.68
2022-11-24T00:50:27.486Z,98.60
2022-11-24T00:53:27.801Z,98.77
2022-11-24T00:56:03.518Z,98.76
2022-11-24T01:12:02.239Z,98.69
2022-11-24T01:14:29.381Z,98.71
2022-11-24T01:16:56.216Z,98.70
2022-11-24T01:19:24.039Z,98.75
2022-11-24T01:21:52.179Z,98.78
2022-11-24T01:24:19.050Z,98.77
2022-11-24T01:26:46.515Z,98.81
2022-11-24T01:29:13.189Z,98.79
2022-11-24T01:31:40.680Z,98.73
2022-11-24T01:34:07.807Z,98.67
2022-11-24T01:36:34.967Z,98.56
2022-11-24T01:39:02.705Z,98.34
2022-11-24T01:41:29.561Z,98.22
2022-11-24T01:44:00.776Z,98.08
2022-11-24T01:46:32.794Z,97.97
2022-11-24T01:49:11.852Z,97.86
2022-11-24T01:51:50.827Z,97.79
2022-11-24T01:54:27.933Z,97.73
2022-11-24T01:57:00.615Z,97.43
2022-11-24T01:59:27.685Z,97.01
2022-11-24T02:01:56.269Z,96.63
2022-11-24T02:04:28.935Z,96.43
2022-11-24T02:06:59.866Z,96.16
2022-11-24T02:09:40.756Z,95.99
2022-11-24T02:12:11.665Z,95.99
2022-11-24T02:14:41.229Z,95.77
2022-11-24T02:17:08.855Z,95.56
2022-11-24T02:19:53.899Z,95.52
2022-11-24T02:22:48.180Z,95.31
2022-11-24T02:25:37.129Z,95.48
2022-11-24T02:28:08.710Z,95.25
2022-11-24T02:30:36.243Z,95.28
2022-11-24T02:33:03.328Z,95.26
2022-11-24T02:35:30.071Z,95.08
2022-11-24T02:37:57.017Z,95.05
2022-11-24T02:40:27.271Z,94.99
2022-11-24T02:43:05.495Z,94.83
2022-11-24T02:45:32.834Z,94.75
2022-11-24T02:47:59.592Z,94.72
2022-11-24T02:50:26.806Z,94.85
2022-11-24T02:52:53.670Z,94.83
2022-11-24T02:55:20.926Z,94.77
2022-11-24T02:57:47.742Z,94.88
2022-11-24T03:00:15.362Z,94.93
2022-11-24T03:02:42.208Z,94.99
2022-11-24T03:05:16.800Z,95.03
2022-11-24T03:07:46.708Z,94.97
2022-11-24T03:10:13.959Z,94.87
2022-11-24T03:12:40.868Z,94.80
2022-11-24T03:15:08.460Z,94.89
2022-11-24T03:17:35.448Z,94.73
2022-11-24T03:20:04.935Z,94.73
2022-11-24T03:22:40.144Z,94.84
2022-11-24T03:25:07.200Z,94.87
2022-11-24T03:27:39.263Z,94.85
2022-11-24T03:30:07.248Z,94.75
2022-11-24T03:32:34.295Z,94.78
2022-11-24T03:35:04.310Z,94.92
2022-11-24T03:37:34.214Z,95.05
2022-11-24T03:40:01.255Z,94.88
2022-11-24T03:42:28.000Z,94.95
2022-11-24T03:44:54.808Z,94.97
2022-11-24T03:47:21.521Z,95.03
2022-11-24T03:49:48.558Z,94.89
2022-11-24T03:52:15.475Z,94.88
2022-11-24T03:54:45.251Z,94.94
2022-11-24T03:57:12.230Z,95.03
2022-11-24T03:59:39.328Z,95.06
2022-11-24T04:02:06.051Z,94.92
2022-11-24T04:04:40.234Z,94.79
2022-11-24T04:07:07.234Z,94.66
2022-11-24T04:09:34.101Z,94.55
2022-11-24T04:12:19.567Z,94.38
2022-11-24T04:14:46.369Z,94.38
2022-11-24T04:17:19.260Z,94.21
2022-11-24T04:19:46.177Z,94.18
2022-11-24T04:22:13.204Z,94.02
2022-11-24T04:24:40.055Z,93.92
2022-11-24T04:27:06.903Z,93.89
2022-11-24T04:29:35.085Z,93.81
2022-11-24T04:34:39.471Z,93.67
2022-11-24T04:37:06.769Z,93.40
2022-11-24T04:39:33.828Z,93.45
2022-11-24T04:42:00.962Z,93.60
2022-11-24T04:44:27.891Z,93.59
2022-11-24T04:46:54.794Z,93.51
2022-11-24T04:49:21.566Z,93.67
2022-11-24T04:51:48.384Z,93.50
2022-11-24T04:54:15.642Z,93.70
2022-11-24T04:56:44.342Z,93.92
2022-11-24T04:59:15.190Z,93.86
2022-11-24T05:01:43.285Z,93.80
2022-11-24T05:04:13.191Z,93.91
2022-11-24T05:06:40.490Z,93.93
2022-11-24T05:09:08.213Z,93.93
2022-11-24T05:11:35.020Z,93.80
2022-11-24T05:14:02.184Z,93.64
2022-11-24T05:16:29.200Z,93.81
2022-11-24T05:18:56.263Z,93.65
2022-11-24T05:21:23.730Z,93.66
2022-11-24T05:23:50.449Z,93.55
2022-11-24T05:26:17.426Z,93.53
2022-11-24T05:28:44.160Z,93.45
2022-11-24T05:31:11.087Z,93.43
2022-11-24T05:33:38.453Z,93.49
2022-11-24T05:36:07.506Z,93.67
2022-11-24T05:38:34.434Z,93.66
2022-11-24T05:41:05.468Z,93.60
2022-11-24T05:43:32.523Z,93.61
2022-11-24T05:46:00.688Z,93.60
2022-11-24T05:48:28.267Z,93.58
2022-11-24T05:50:56.806Z,93.94
2022-11-24T05:53:24.367Z,93.83
2022-11-24T05:55:51.315Z,92.48
2022-11-24T05:58:18.332Z,92.54
2022-11-24T06:00:45.079Z,91.83
2022-11-24T06:03:12.833Z,91.02
2022-11-24T06:05:39.600Z,91.02
2022-11-24T06:08:06.242Z,90.10
2022-11-24T06:10:33.024Z,89.03
2022-11-24T06:12:59.818Z,89.55
2022-11-24T06:15:26.608Z,89.56
2022-11-24T06:17:56.672Z,88.69
2022-11-24T06:20:29.738Z,89.22
2022-11-24T06:22:59.295Z,89.15
2022-11-24T06:25:26.465Z,89.09
2022-11-24T06:27:56.456Z,88.88
2022-11-24T06:30:23.436Z,89.19
2022-11-24T06:32:54.876Z,89.44
2022-11-24T06:35:21.600Z,89.64
2022-11-24T06:37:48.498Z,89.43
2022-11-24T06:40:15.301Z,89.23
2022-11-24T06:42:41.953Z,89.49
2022-11-24T06:45:09.806Z,89.56
2022-11-24T06:47:36.831Z,88.88
2022-11-24T06:50:03.948Z,87.93
2022-11-24T06:52:30.778Z,88.74
2022-11-24T06:54:57.591Z,88.87
2022-11-24T06:57:24.398Z,89.01
2022-11-24T06:59:51.358Z,89.37
2022-11-24T07:02:18.116Z,89.30
2022-11-24T07:04:44.689Z,89.85
2022-11-24T07:07:11.504Z,89.64
2022-11-24T07:09:38.396Z,89.59
2022-11-24T07:12:06.064Z,89.34
2022-11-24T07:14:33.303Z,89.90
2022-11-24T07:17:02.612Z,89.92
2022-11-24T07:19:29.620Z,89.90
2022-11-24T07:21:56.798Z,89.79
2022-11-24T07:24:23.494Z,90.04
2022-11-24T07:26:50.629Z,88.35
2022-11-24T07:33:36.355Z,88.54
2022-11-24T07:36:04.432Z,88.15
2022-11-24T07:38:33.823Z,88.34
2022-11-24T07:41:02.340Z,88.20
2022-11-24T07:46:20.322Z,87.85
2022-11-24T07:48:47.755Z,88.05
2022-11-24T07:51:15.670Z,87.94
2022-11-24T07:53:42.307Z,87.27
2022-11-24T07:56:09.894Z,87.50
2022-11-24T07:58:37.776Z,86.89
2022-11-24T08:01:15.843Z,87.08
2022-11-24T08:03:43.348Z,87.83
2022-11-24T08:06:29.050Z,87.06
2022-11-24T08:08:57.240Z,87.27
2022-11-24T08:11:24.416Z,86.89
2022-11-24T08:13:51.299Z,86.75
2022-11-24T08:16:19.501Z,86.87
2022-11-24T08:18:54.174Z,86.14
2022-11-24T08:21:23.342Z,86.28
2022-11-24T08:23:54.339Z,85.95
2022-11-24T08:26:23.922Z,86.00
2022-11-24T08:28:56.501Z,86.15
2022-11-24T08:31:23.174Z,86.14
2022-11-24T08:33:49.790Z,86.47
2022-11-24T08:36:19.184Z,85.91
2022-11-24T08:38:46.139Z,86.25
2022-11-24T08:41:16.942Z,86.14
2022-11-24T08:43:43.474Z,86.04
2022-11-24T08:46:12.562Z,85.98
2022-11-24T08:48:39.533Z,86.30
2022-11-24T08:51:08.533Z,86.08
2022-11-24T08:53:35.043Z,85.92
2022-11-24T08:56:02.308Z,85.66
2022-11-24T08:58:29.839Z,85.79
2022-11-24T09:01:03.257Z,85.84
2022-11-24T09:03:29.845Z,86.00
2022-11-24T09:05:56.305Z,86.19
2022-11-24T09:08:22.782Z,85.87
2022-11-24T09:10:49.382Z,85.71
2022-11-24T09:13:16.068Z,85.93
2022-11-24T09:15:42.645Z,85.45
2022-11-24T09:18:09.107Z,85.53
2022-11-24T09:20:35.588Z,85.30
2022-11-24T09:23:02.166Z,85.58
2022-11-24T09:25:28.656Z,85.29
2022-11-24T09:27:56.466Z,84.21
2022-11-24T09:30:23.449Z,83.86
2022-11-24T09:32:49.972Z,83.52
2022-11-24T09:35:16.530Z,83.64
2022-11-24T09:37:45.179Z,83.60
2022-11-24T09:40:16.480Z,84.12
2022-11-24T09:42:50.642Z,83.72
2022-11-24T09:46:03.436Z,83.70
2022-11-24T09:48:27.124Z,83.71
2022-11-24T09:50:54.034Z,83.51
2022-11-24T09:53:45.508Z,83.64
2022-11-24T09:56:24.164Z,82.74
2022-11-24T09:58:53.728Z,80.86
2022-11-24T10:01:26.255Z,79.47
2022-11-24T10:03:54.712Z,79.58
2022-11-24T10:06:27.243Z,79.46
2022-11-24T10:09:02.820Z,77.20
2022-11-24T10:11:38.058Z,75.89
2022-11-24T10:14:27.909Z,74.40
2022-11-24T10:17:28.365Z,75.73
2022-11-24T10:20:10.767Z,75.33
2022-11-24T10:23:15.123Z,74.11
2022-11-24T10:25:51.694Z,73.46
2022-11-24T10:28:18.179Z,72.61
2022-11-24T10:30:45.100Z,71.72
2022-11-24T10:33:30.645Z,71.11
2022-11-24T10:36:09.617Z,72.73
2022-11-24T10:38:48.802Z,71.95
2022-11-24T10:41:23.607Z,71.39
2022-11-24T10:43:52.344Z,71.41
2022-11-24T10:46:36.246Z,69.97
2022-11-24T10:49:06.189Z,69.72
2022-11-24T10:51:46.730Z,70.37
2022-11-24T10:54:31.644Z,70.16
2022-11-24T10:56:58.214Z,68.85
2022-11-24T10:59:24.774Z,69.32
2022-11-24T11:01:52.825Z,68.58
2022-11-24T11:04:33.195Z,68.26
2022-11-24T11:07:08.610Z,70.10
2022-11-24T11:09:35.300Z,69.82
2022-11-24T11:12:42.016Z,69.94
2022-11-24T11:14:57.036Z,68.27
2022-11-24T11:17:44.432Z,67.76
2022-11-24T11:20:19.670Z,68.10
2022-11-24T11:22:49.079Z,68.34
2022-11-24T11:25:19.114Z,68.33
2022-11-24T11:27:46.093Z,67.96
2022-11-24T11:36:11.253Z,66.16
2022-11-24T11:38:39.706Z,65.96
2022-11-24T11:41:13.971Z,65.60
2022-11-24T11:43:41.618Z,64.79
2022-11-24T11:46:08.238Z,64.90
2022-11-24T11:48:43.576Z,65.39
2022-11-24T11:51:25.918Z,66.86
2022-11-24T11:54:03.105Z,67.76
2022-11-24T11:56:34.013Z,68.08
2022-11-24T11:59:29.031Z,65.91
2022-11-24T12:02:07.619Z,65.48
2022-11-24T12:04:58.507Z,66.28
2022-11-24T12:07:36.465Z,65.77
2022-11-24T12:10:41.923Z,64.14
2022-11-24T12:13:32.300Z,64.34
2022-11-24T12:16:09.857Z,63.52
2022-11-24T12:21:30.452Z,64.48
2022-11-24T12:24:09.074Z,64.52
2022-11-24T12:26:44.727Z,65.89
2022-11-24T12:29:14.134Z,65.96
2022-11-24T12:32:11.806Z,66.27
2022-11-24T12:34:54.601Z,66.22
2022-11-24T12:37:30.195Z,67.55
2022-11-24T12:40:24.981Z,69.24
2022-11-24T12:43:15.429Z,66.77
2022-11-24T12:46:01.322Z,65.24
2022-11-24T12:48:27.736Z,66.43
2022-11-24T12:50:55.530Z,64.37
2022-11-24T12:53:27.197Z,65.26
2022-11-24T12:55:54.809Z,63.29
2022-11-24T12:58:43.257Z,64.02
2022-11-24T13:01:22.790Z,63.47
2022-11-24T13:04:11.877Z,63.92
2022-11-24T13:06:51.672Z,63.24
2022-11-24T13:09:18.509Z,62.79
2022-11-24T13:11:47.101Z,62.51
2022-11-24T13:14:16.810Z,61.03
2022-11-24T13:20:22.278Z,63.63
2022-11-24T13:22:54.060Z,66.04
2022-11-24T13:25:22.572Z,65.29
2022-11-24T13:27:53.758Z,65.01
2022-11-24T13:30:45.219Z,64.79
2022-11-24T13:33:16.004Z,63.61
2022-11-24T13:36:04.270Z,62.80
2022-11-24T13:38:39.735Z,62.89
2022-11-24T13:41:30.571Z,61.35
2022-11-24T13:44:15.207Z,62.46
2022-11-24T13:47:04.733Z,62.99
2022-11-24T13:49:43.246Z,62.78
2022-11-24T13:52:34.690Z,63.12
2022-11-24T13:55:10.015Z,62.38
2022-11-24T13:57:46.785Z,63.88
2022-11-24T14:00:23.910Z,63.13
2022-11-24T14:03:02.192Z,62.67
2022-11-24T14:05:45.912Z,61.25
2022-11-24T14:08:21.925Z,60.86
2022-11-24T14:10:48.690Z,61.54
2022-11-24T14:13:24.331Z,63.46
2022-11-24T14:16:09.084Z,64.51
2022-11-24T14:18:40.568Z,64.68
2022-11-24T14:21:22.026Z,65.63
2022-11-24T14:23:52.512Z,65.55
2022-11-24T14:26:33.406Z,65.76
2022-11-24T14:29:05.998Z,66.64
2022-11-24T14:31:32.885Z,66.73
2022-11-24T14:34:11.489Z,67.04
2022-11-24T14:36:42.048Z,67.80
2022-11-24T14:39:13.918Z,68.28
2022-11-24T14:41:42.231Z,68.27
2022-11-24T14:44:08.776Z,68.10
2022-11-24T14:46:36.800Z,67.88
2022-11-24T14:49:03.607Z,67.97
2022-11-24T14:51:33.798Z,67.88
2022-11-24T14:54:03.146Z,67.64
2022-11-24T14:56:34.685Z,67.79
2022-11-24T14:59:01.379Z,68.26
2022-11-24T15:01:27.962Z,69.06
2022-11-24T15:07:27.267Z,71.11
2022-11-24T15:09:58.920Z,71.55
2022-11-24T15:12:34.333Z,71.88
2022-11-24T15:15:07.235Z,72.32
2022-11-24T15:17:34.414Z,72.73
2022-11-24T15:20:09.446Z,73.12
2022-11-24T15:22:37.247Z,73.40
2022-11-24T15:25:04.294Z,73.81
2022-11-24T15:27:30.902Z,74.08
2022-11-24T15:29:57.407Z,74.80
2022-11-24T15:32:24.038Z,75.00
2022-11-24T15:34:50.522Z,75.28
2022-11-24T15:37:17.083Z,75.43
2022-11-24T15:39:43.535Z,75.56
2022-11-24T15:42:12.202Z,75.84
2022-11-24T15:44:38.707Z,76.20
2022-11-24T15:47:05.487Z,76.51
2022-11-24T15:49:31.984Z,76.74
2022-11-24T15:51:58.544Z,77.05
2022-11-24T15:54:25.857Z,77.34
2022-11-24T15:56:52.592Z,77.15
2022-11-24T15:59:21.182Z,77.18
2022-11-24T16:01:49.653Z,77.05
2022-11-24T16:04:16.530Z,77.45
2022-11-24T16:06:43.221Z,77.62
2022-11-24T16:09:14.513Z,77.93
2022-11-24T16:11:41.169Z,78.21
2022-11-24T16:14:07.689Z,78.37
2022-11-24T16:16:34.322Z,78.10
2022-11-24T16:19:00.947Z,77.86
2022-11-24T16:21:27.411Z,77.42
2022-11-24T16:23:54.137Z,77.02
2022-11-24T16:26:20.735Z,77.35
2022-11-24T16:28:47.272Z,77.00
2022-11-24T16:31:16.031Z,77.26
2022-11-24T16:33:44.901Z,77.10
2022-11-24T16:36:11.953Z,77.41
2022-11-24T16:38:38.563Z,77.08
2022-11-24T16:41:05.344Z,76.91
2022-11-24T16:43:35.137Z,77.06
2022-11-24T16:46:14.334Z,76.72
2022-11-24T16:48:40.919Z,76.97
2022-11-24T16:51:10.081Z,77.22
2022-11-24T16:53:37.555Z,77.00
2022-11-24T16:56:04.582Z,77.59
2022-11-24T16:58:31.250Z,77.57
2022-11-24T17:01:06.374Z,77.67
2022-11-24T17:03:34.136Z,77.34
2022-11-24T17:06:00.909Z,77.79
2022-11-24T17:08:31.211Z,78.20
2022-11-24T17:10:58.174Z,78.48
2022-11-24T17:13:24.648Z,79.17
2022-11-24T17:15:54.131Z,79.39
2022-11-24T17:18:25.425Z,79.71
2022-11-24T17:20:52.172Z,79.83
2022-11-24T17:23:19.754Z,80.47
2022-11-24T17:25:46.531Z,80.98
2022-11-24T17:28:13.041Z,81.06
2022-11-24T17:30:39.530Z,81.34
2022-11-24T17:33:06.161Z,81.82
2022-11-24T17:35:35.940Z,81.91
2022-11-24T17:38:03.049Z,82.22
2022-11-24T17:40:30.255Z,82.42
2022-11-24T17:43:00.599Z,82.74
2022-11-24T17:45:28.393Z,83.10
2022-11-24T17:47:55.277Z,83.35
2022-11-24T17:50:25.707Z,83.59
2022-11-24T17:52:53.639Z,83.79
2022-11-24T17:55:20.124Z,83.80
2022-11-24T17:57:46.605Z,83.96
2022-11-24T18:00:13.740Z,84.07
2022-11-24T18:02:40.384Z,84.38
2022-11-24T18:05:07.177Z,84.32
2022-11-24T18:07:36.716Z,84.43
2022-11-24T18:10:04.384Z,84.53
2022-11-24T18:12:32.143Z,84.72
2022-11-24T18:14:58.671Z,84.90
2022-11-24T18:17:25.341Z,85.10
2022-11-24T18:19:51.841Z,85.24
2022-11-24T18:22:21.003Z,85.39
2022-11-24T18:24:52.426Z,85.36
2022-11-24T18:27:18.956Z,85.21
2022-11-24T18:29:45.767Z,84.65
2022-11-24T18:32:12.335Z,84.89
2022-11-24T18:34:38.911Z,84.73
2022-11-24T18:37:05.572Z,84.97
2022-11-24T18:39:32.088Z,85.03
2022-11-24T18:41:58.606Z,85.28
2022-11-24T18:44:25.214Z,85.02
2022-11-24T18:46:51.791Z,85.29
2022-11-24T18:49:18.297Z,85.13
2022-11-24T18:51:44.892Z,84.97
2022-11-24T18:58:41.045Z,85.47
2022-11-24T19:01:08.180Z,85.27
2022-11-24T19:03:42.307Z,85.29
2022-11-24T19:06:15.457Z,85.38
2022-11-24T19:08:42.333Z,85.27
2022-11-24T19:11:16.674Z,85.22
2022-11-24T19:13:43.289Z,84.97
2022-11-24T19:16:13.632Z,85.17
2022-11-24T19:18:40.290Z,85.38
2022-11-24T19:21:06.992Z,85.50
2022-11-24T19:23:33.478Z,85.55
2022-11-24T19:26:01.066Z,85.52
2022-11-24T19:28:27.592Z,85.32
2022-11-24T19:30:54.139Z,85.70
2022-11-24T19:33:21.568Z,85.55
2022-11-24T19:35:48.026Z,85.67
2022-11-24T19:38:15.279Z,85.77
2022-11-24T19:40:41.924Z,86.09
2022-11-24T19:43:08.419Z,86.04
2022-11-24T19:45:35.167Z,86.28
2022-11-24T19:48:02.051Z,86.07
2022-11-24T19:50:28.470Z,86.03
2022-11-24T19:52:54.957Z,86.29
2022-11-24T19:55:21.446Z,86.32
2022-11-24T19:57:48.045Z,86.55
2022-11-24T20:00:15.763Z,86.53
2022-11-24T20:02:42.388Z,86.68
2022-11-24T20:05:09.279Z,86.67
2022-11-24T20:07:35.803Z,86.70
2022-11-24T20:10:07.540Z,86.55
2022-11-24T20:12:34.745Z,86.61
2022-11-24T20:15:01.201Z,86.33
2022-11-24T20:17:30.199Z,85.94
2022-11-24T20:19:56.649Z,86.07
2022-11-24T20:22:23.129Z,85.88
2022-11-24T20:24:49.560Z,85.96
2022-11-24T20:27:16.061Z,86.10
2022-11-24T20:29:46.787Z,86.00
2022-11-24T20:32:19.330Z,86.35
2022-11-24T20:34:46.643Z,86.59
2022-11-24T20:37:13.714Z,86.94
2022-11-24T20:39:40.451Z,86.97
2022-11-24T20:42:07.419Z,87.17
2022-11-24T20:44:34.418Z,87.39
2022-11-24T20:47:02.927Z,87.30
2022-11-24T20:49:29.784Z,87.54
2022-11-24T20:51:57.377Z,87.71
2022-11-24T20:54:24.153Z,87.87
2022-11-24T20:56:50.650Z,87.59
2022-11-24T20:59:21.559Z,87.75
2022-11-24T21:01:50.788Z,87.93
2022-11-24T21:04:21.137Z,88.09
2022-11-24T21:06:48.468Z,88.25
2022-11-24T21:09:15.217Z,88.43
2022-11-24T21:11:42.379Z,88.50
2022-11-24T21:14:09.749Z,88.69
2022-11-24T21:16:38.044Z,88.85
2022-11-24T21:19:13.514Z,89.01
2022-11-24T21:21:42.573Z,89.15
2022-11-24T21:24:17.510Z,89.12
2022-11-24T21:26:47.999Z,89.35
2022-11-24T21:29:17.377Z,89.15
2022-11-24T21:31:43.987Z,89.31
2022-11-24T21:34:15.242Z,89.43
2022-11-24T21:36:45.171Z,89.25
2022-11-24T21:39:13.931Z,89.41
2022-11-24T21:41:41.362Z,89.46
2022-11-24T21:44:08.056Z,89.32
2022-11-24T21:46:43.564Z,89.25
2022-11-24T21:49:13.275Z,89.36
2022-11-24T21:51:39.851Z,89.49
2022-11-24T21:54:06.856Z,89.48
2022-11-24T21:56:33.470Z,89.42
2022-11-24T21:58:59.944Z,89.53
2022-11-24T22:01:28.637Z,89.55
2022-11-24T22:03:55.570Z,89.46
2022-11-24T22:06:22.411Z,89.40
2022-11-24T22:08:50.146Z,89.36
2022-11-24T22:11:25.897Z,89.38
2022-11-24T22:13:53.138Z,89.08
2022-11-24T22:16:21.863Z,89.12
2022-11-24T22:18:48.517Z,88.97
2022-11-24T22:21:20.139Z,89.05
2022-11-24T22:23:50.339Z,88.96
2022-11-24T22:26:19.254Z,88.92
2022-11-24T22:28:46.331Z,89.10
2022-11-24T22:31:18.155Z,88.98
2022-11-24T22:33:45.204Z,89.07
2022-11-24T22:36:13.507Z,88.99
2022-11-24T22:38:40.513Z,89.09
2022-11-24T22:41:10.015Z,88.85
2022-11-24T22:43:38.115Z,88.55
2022-11-24T22:46:08.773Z,88.43
2022-11-24T22:48:35.587Z,88.45
2022-11-24T22:51:06.543Z,88.23
2022-11-24T22:53:33.273Z,88.15
2022-11-24T22:56:04.052Z,87.94
2022-11-24T22:58:33.014Z,87.73
2022-11-24T23:01:09.751Z,87.83
2022-11-24T23:03:36.963Z,87.43
2022-11-24T23:06:09.878Z,87.37
2022-11-24T23:08:36.851Z,87.11
2022-11-24T23:11:06.644Z,87.23
2022-11-24T23:13:33.660Z,87.13
2022-11-24T23:16:21.295Z,86.74
2022-11-24T23:18:52.342Z,86.56
2022-11-24T23:21:24.839Z,86.92
2022-11-24T23:23:52.282Z,86.87
2022-11-24T23:26:25.014Z,86.73
2022-11-24T23:28:51.778Z,86.60
2022-11-24T23:31:21.478Z,86.71
2022-11-24T23:33:48.102Z,86.85
2022-11-24T23:36:16.967Z,86.78
2022-11-24T23:38:43.883Z,86.70
2022-11-24T23:41:16.118Z,86.65
2022-11-24T23:43:43.675Z,86.57
2022-11-24T23:46:17.042Z,86.74
2022-11-24T23:48:44.607Z,86.71
2022-11-24T23:51:17.058Z,86.88
2022-11-24T23:53:44.374Z,86.63
2022-11-24T23:56:17.064Z,86.81
2022-11-24T23:58:43.945Z,87.02
